Bakersville, North Carolina
Current Conditions -  °F | °C
As of 9:15 AM on Tuesday 27 Jan 2015 (Local Time) from K0A9 Reporting Station
Overcast Overcast  
Wind Chill: 27°   Ceiling: 3300
Heat Index: 27°   Visibility: 10mi
Dew Point: 19°   Wind: 3mph
Humidity: 74%   Direction: 280°W
Pressure: 29.89"   Gusts: NA
Location:  36.02°N, 82.16°W
Report Text: K0A9 271415Z AUTO 28003KT 10SM SCT024 OVC033 M03/M07 A2989 RMK
Loading
Personal Weather Stations






























Interactive Weather Map New forecast layout! Learn more

10-Day Weather Forecast

Advertisements
Track Severe Weather on mobile